Time;durP1;ratioP1;P1;durP2;ratioP2;P2;SDS_P1;SDS_P2;PMS_P1;PMS_P2;Temp;Humidity;BMP_temperature;BMP_pressure;BME280_temperature;BME280_humidity;BME280_pressure;Samples;Min_cycle;Max_cycle;Signal;HPM_P1;HPM_P2
2022/10/03 00:01:26;;;;;;;11.27;3.25;;;13.30;99.90;;;;;;4994922;28;20352;-88
2022/10/03 00:04:12;;;;;;;17.48;3.00;;;13.20;99.90;;;;;;4996421;28;20485;-87
2022/10/03 00:06:51;;;;;;;14.02;3.35;;;13.30;99.90;;;;;;4994906;28;20029;-87
2022/10/03 00:10:07;;;;;;;12.80;3.10;;;13.30;99.90;;;;;;5011630;28;20030;-87
2022/10/03 00:12:53;;;;;;;9.48;3.28;;;13.20;99.90;;;;;;4978231;28;20101;-86
2022/10/03 00:15:40;;;;;;;7.60;2.72;;;13.20;99.90;;;;;;5011575;28;20030;-87
2022/10/03 00:18:30;;;;;;;12.43;3.30;;;13.20;99.90;;;;;;5011198;28;20029;-87
2022/10/03 00:21:16;;;;;;;12.73;3.20;;;13.20;99.90;;;;;;4996021;28;20463;-87
2022/10/03 00:23:51;;;;;;;15.70;3.75;;;13.20;99.90;;;;;;5010907;28;20296;-86
2022/10/03 00:26:35;;;;;;;12.45;3.10;;;13.10;99.90;;;;;;4996116;28;20022;-87
2022/10/03 00:29:15;;;;;;;15.80;3.95;;;13.10;99.90;;;;;;4994772;28;20014;-87
2022/10/03 00:32:25;;;;;;;14.85;2.92;;;13.10;99.90;;;;;;4994575;28;20022;-87
2022/10/03 00:35:02;;;;;;;10.70;2.95;;;13.10;99.90;;;;;;4994013;28;20046;-87
2022/10/03 00:38:00;;;;;;;11.25;3.45;;;13.10;99.90;;;;;;5010375;28;20033;-88
2022/10/03 00:40:34;;;;;;;11.95;3.17;;;13.10;99.90;;;;;;4964521;28;20035;-87
2022/10/03 00:43:19;;;;;;;12.75;3.20;;;13.00;99.90;;;;;;5010970;28;20037;-87
2022/10/03 00:45:56;;;;;;;8.45;2.92;;;13.00;99.90;;;;;;4995761;28;20026;-87
2022/10/03 00:48:34;;;;;;;14.88;3.03;;;13.00;99.90;;;;;;5010706;28;20049;-87
2022/10/03 00:51:23;;;;;;;9.10;2.90;;;12.90;99.90;;;;;;5010523;28;20089;-87
2022/10/03 00:54:06;;;;;;;13.35;2.72;;;12.90;99.90;;;;;;4994198;28;20019;-87
2022/10/03 00:56:47;;;;;;;13.10;3.30;;;12.90;99.90;;;;;;4994023;28;20518;-87
2022/10/03 00:59:39;;;;;;;11.98;3.20;;;12.90;99.90;;;;;;5010670;28;20038;-87
2022/10/03 01:02:40;;;;;;;12.48;3.00;;;12.90;99.90;;;;;;5010400;28;20033;-87
2022/10/03 01:05:14;;;;;;;13.27;3.95;;;12.80;99.90;;;;;;4944949;28;20546;-86
2022/10/03 01:08:17;;;;;;;15.90;3.78;;;12.80;99.90;;;;;;4995151;28;20026;-87
2022/10/03 01:10:52;;;;;;;8.45;2.83;;;12.80;99.90;;;;;;4993973;28;20030;-87
2022/10/03 01:13:33;;;;;;;13.48;3.35;;;12.80;99.90;;;;;;5009427;28;20033;-87
2022/10/03 01:16:30;;;;;;;10.40;3.10;;;12.80;99.90;;;;;;4995020;28;20065;-87
2022/10/03 01:19:17;;;;;;;10.38;2.97;;;12.80;99.90;;;;;;4993871;28;20030;-87
2022/10/03 01:22:01;;;;;;;12.95;2.90;;;12.70;99.90;;;;;;4995166;28;20042;-87
2022/10/03 01:25:18;;;;;;;11.80;3.22;;;12.80;99.90;;;;;;4996397;28;20097;-87
2022/10/03 01:31:01;;;;;;;10.68;3.00;;;12.70;99.90;;;;;;4994959;28;20034;-87
2022/10/03 01:33:36;;;;;;;11.57;3.28;;;12.70;99.90;;;;;;4994754;28;20474;-87
2022/10/03 01:36:25;;;;;;;13.00;3.67;;;12.60;99.90;;;;;;4993461;28;20513;-87
2022/10/03 01:39:16;;;;;;;12.50;3.33;;;12.60;99.90;;;;;;4993325;28;20046;-87
2022/10/03 01:41:47;;;;;;;11.80;3.03;;;12.60;99.90;;;;;;4994705;28;20022;-87
2022/10/03 01:44:25;;;;;;;12.40;3.45;;;12.60;99.90;;;;;;4994676;28;20034;-87
2022/10/03 01:47:16;;;;;;;11.32;3.60;;;12.50;99.90;;;;;;4994292;28;20102;-88
2022/10/03 01:49:49;;;;;;;10.13;3.38;;;12.50;99.90;;;;;;4994558;28;20050;-88
2022/10/03 01:52:21;;;;;;;11.25;3.25;;;12.50;99.90;;;;;;4994574;28;20074;-87
2022/10/03 01:54:57;;;;;;;12.07;3.17;;;12.50;99.90;;;;;;4993226;28;20049;-87
2022/10/03 01:57:34;;;;;;;15.07;4.38;;;12.50;99.90;;;;;;5009978;28;20117;-87
2022/10/03 02:00:20;;;;;;;9.25;3.08;;;12.40;99.90;;;;;;4993142;28;20022;-87
2022/10/03 02:03:06;;;;;;;10.82;3.22;;;12.40;99.90;;;;;;4994282;28;20082;-87
2022/10/03 02:05:47;;;;;;;11.70;4.40;;;12.40;99.90;;;;;;5009692;28;20034;-88
2022/10/03 02:08:39;;;;;;;12.43;3.42;;;12.40;99.90;;;;;;5010268;28;20485;-88
2022/10/03 02:11:10;;;;;;;13.50;3.25;;;12.40;99.90;;;;;;5009589;28;20169;-87
2022/10/03 02:14:04;;;;;;;12.15;3.50;;;12.30;99.90;;;;;;4977013;28;20053;-87
2022/10/03 02:16:43;;;;;;;10.45;3.75;;;12.30;99.90;;;;;;4994307;28;20110;-87
2022/10/03 02:19:28;;;;;;;11.15;3.50;;;12.30;99.90;;;;;;4976977;28;20030;-84
2022/10/03 02:21:56;;;;;;;11.52;3.38;;;12.20;99.90;;;;;;4993159;28;20029;-87
2022/10/03 02:24:31;;;;;;;11.07;4.15;;;12.20;99.90;;;;;;4993225;28;20018;-87
2022/10/03 02:27:24;;;;;;;12.25;3.58;;;12.20;99.90;;;;;;4998257;28;20018;-88
2022/10/03 02:30:17;;;;;;;9.75;3.58;;;12.20;99.90;;;;;;4997091;28;20117;-87
2022/10/03 02:33:10;;;;;;;12.35;3.90;;;12.20;99.90;;;;;;4963096;28;20461;-87
2022/10/03 02:36:03;;;;;;;12.68;3.13;;;12.10;99.90;;;;;;4996926;28;20042;-91
2022/10/03 02:38:58;;;;;;;9.80;3.42;;;12.10;99.90;;;;;;4996974;28;20049;-87
2022/10/03 02:41:47;;;;;;;8.85;3.38;;;12.10;99.90;;;;;;4996981;28;20026;-88
2022/10/03 02:44:31;;;;;;;8.10;3.50;;;12.10;99.90;;;;;;4996748;28;20027;-87
2022/10/03 02:47:07;;;;;;;9.07;3.88;;;12.00;99.90;;;;;;4997792;28;20487;-88
2022/10/03 02:50:14;;;;;;;11.73;3.92;;;12.00;99.90;;;;;;4998045;28;20022;-87
2022/10/03 02:52:40;;;;;;;8.85;2.60;;;12.00;99.90;;;;;;4997739;28;20014;-88
2022/10/03 02:55:26;;;;;;;7.82;2.45;;;12.00;99.90;;;;;;5013058;28;20058;-88
2022/10/03 02:58:25;;;;;;;8.60;2.45;;;11.90;99.90;;;;;;5012804;28;20030;-88
2022/10/03 03:01:28;;;;;;;6.55;2.40;;;11.90;99.90;;;;;;4996572;28;20364;-88
2022/10/03 03:04:15;;;;;;;7.03;3.08;;;11.90;99.90;;;;;;4996328;28;20453;-88
2022/10/03 03:07:22;;;;;;;8.30;2.53;;;11.90;99.90;;;;;;4996564;28;20033;-90
2022/10/03 03:10:08;;;;;;;5.88;2.30;;;11.80;99.90;;;;;;4988009;28;20037;-88
2022/10/03 03:12:43;;;;;;;9.18;2.72;;;11.80;99.90;;;;;;4966584;28;20073;-88
2022/10/03 03:15:30;;;;;;;8.15;2.92;;;11.80;99.90;;;;;;5012827;28;20066;-87
2022/10/03 03:18:31;;;;;;;7.93;3.17;;;11.80;99.90;;;;;;4996093;28;20038;-88
2022/10/03 03:21:15;;;;;;;12.18;3.80;;;11.80;99.90;;;;;;4996104;28;20019;-88
2022/10/03 03:24:15;;;;;;;9.98;3.10;;;11.80;99.90;;;;;;5012708;28;20477;-88
2022/10/03 03:27:05;;;;;;;8.90;2.95;;;11.70;99.90;;;;;;5012631;28;20042;-88
2022/10/03 03:30:09;;;;;;;12.90;3.80;;;11.70;99.90;;;;;;4997208;28;20057;-88
2022/10/03 03:33:00;;;;;;;10.35;3.30;;;11.70;99.90;;;;;;4995052;28;20034;-88
2022/10/03 03:35:44;;;;;;;11.57;3.75;;;11.70;99.90;;;;;;4996213;28;20036;-87
2022/10/03 03:38:47;;;;;;;13.70;3.67;;;11.60;99.90;;;;;;4995080;28;20061;-87
2022/10/03 03:41:44;;;;;;;12.70;3.78;;;11.60;99.90;;;;;;4994230;28;20042;-88
2022/10/03 03:44:30;;;;;;;10.43;3.83;;;11.60;99.90;;;;;;4995686;28;20026;-88
2022/10/03 03:47:27;;;;;;;10.55;3.70;;;11.60;99.90;;;;;;4996650;28;20034;-87
2022/10/03 03:50:19;;;;;;;10.77;4.13;;;11.60;99.90;;;;;;4996731;28;20125;-87
2022/10/03 03:53:12;;;;;;;9.65;3.70;;;11.60;99.90;;;;;;5012171;28;20026;-87
2022/10/03 03:55:54;;;;;;;10.85;3.78;;;11.60;99.90;;;;;;5011876;28;20033;-87
2022/10/03 03:58:32;;;;;;;8.75;3.40;;;11.60;99.90;;;;;;4996588;28;20031;-88
2022/10/03 04:01:28;;;;;;;9.90;4.05;;;11.50;99.90;;;;;;5011465;28;20022;-87
2022/10/03 04:04:22;;;;;;;12.57;3.92;;;11.50;99.90;;;;;;4995370;28;20030;-88
2022/10/03 04:07:02;;;;;;;8.80;3.55;;;11.50;99.90;;;;;;5011824;28;20030;-89
2022/10/03 04:10:05;;;;;;;11.98;3.90;;;11.50;99.90;;;;;;4996785;28;20030;-88
2022/10/03 04:12:50;;;;;;;11.63;3.97;;;11.40;99.90;;;;;;4996461;28;20019;-88
2022/10/03 04:15:32;;;;;;;9.52;3.90;;;11.40;99.90;;;;;;4995353;28;20386;-88
2022/10/03 04:21:05;;;;;;;8.35;3.30;;;11.40;99.90;;;;;;4996368;28;20065;-88
2022/10/03 04:24:01;;;;;;;8.32;3.28;;;11.30;99.90;;;;;;4994964;28;20054;-88
2022/10/03 04:26:58;;;;;;;11.43;3.83;;;11.30;99.90;;;;;;4996138;28;20033;-88
2022/10/03 04:29:45;;;;;;;6.85;2.70;;;11.30;99.90;;;;;;4994998;28;20085;-88
2022/10/03 04:32:56;;;;;;;8.30;3.05;;;11.20;99.90;;;;;;4994622;28;20049;-88
2022/10/03 04:35:49;;;;;;;6.28;2.60;;;11.20;99.90;;;;;;4995106;28;20065;-88
2022/10/03 04:38:38;;;;;;;7.78;2.40;;;11.20;99.90;;;;;;4995611;28;20058;-88
2022/10/03 04:41:26;;;;;;;9.65;3.17;;;11.20;99.90;;;;;;4994550;28;20060;-88
2022/10/03 04:44:22;;;;;;;10.50;2.85;;;11.20;99.90;;;;;;4995461;28;20494;-89
2022/10/03 04:46:57;;;;;;;7.75;3.05;;;11.10;99.90;;;;;;4995665;28;20022;-87
2022/10/03 04:50:10;;;;;;;6.78;2.63;;;11.10;99.90;;;;;;4993555;28;20026;-87
2022/10/03 04:52:47;;;;;;;8.80;3.03;;;11.10;99.90;;;;;;4991272;28;20098;-88
2022/10/03 04:55:35;;;;;;;7.50;2.83;;;11.00;99.90;;;;;;5010395;28;20046;-88
2022/10/03 04:58:14;;;;;;;7.47;2.60;;;11.00;99.90;;;;;;4994206;28;20038;-88
2022/10/03 05:01:01;;;;;;;6.35;2.50;;;11.00;99.90;;;;;;4994316;28;20025;-87
2022/10/03 05:03:52;;;;;;;8.90;3.28;;;10.90;99.90;;;;;;4995058;28;20065;-88
2022/10/03 05:06:54;;;;;;;13.15;3.20;;;11.00;99.90;;;;;;5010508;28;20037;-88
2022/10/03 05:09:38;;;;;;;6.95;3.53;;;10.90;99.90;;;;;;5010211;28;20442;-88
2022/10/03 05:12:28;;;;;;;6.40;2.72;;;10.90;99.90;;;;;;5010609;28;20057;-88
2022/10/03 05:15:09;;;;;;;7.20;2.80;;;10.90;99.90;;;;;;4995837;28;20023;-88
2022/10/03 05:17:47;;;;;;;7.03;2.70;;;10.90;99.90;;;;;;5018198;28;20022;-88
2022/10/03 05:20:31;;;;;;;8.30;3.28;;;10.90;99.90;;;;;;4993989;28;20524;-88
2022/10/03 05:23:25;;;;;;;13.18;3.97;;;10.90;99.90;;;;;;4994983;28;20019;-89
2022/10/03 05:25:56;;;;;;;8.10;3.60;;;10.90;99.90;;;;;;5010445;28;20026;-88
2022/10/03 05:28:35;;;;;;;10.52;4.32;;;10.90;99.90;;;;;;5010149;28;20022;-88
2022/10/03 05:31:49;;;;;;;11.10;4.00;;;10.90;99.90;;;;;;5010119;28;20540;-88
2022/10/03 05:34:37;;;;;;;9.32;3.95;;;10.90;99.90;;;;;;4918964;29;20023;-88
2022/10/03 05:37:42;;;;;;;7.22;3.50;;;10.90;99.90;;;;;;4934809;29;20050;-88
2022/10/03 05:40:35;;;;;;;9.68;3.70;;;10.80;99.90;;;;;;4990256;28;20053;-88
2022/10/03 05:43:12;;;;;;;11.45;4.22;;;10.90;99.90;;;;;;4974787;28;20035;-87
2022/10/03 05:45:54;;;;;;;10.55;4.35;;;10.80;99.90;;;;;;4994322;28;20470;-87
2022/10/03 05:48:42;;;;;;;10.75;4.07;;;10.80;99.90;;;;;;4993660;28;20037;-88
2022/10/03 05:51:32;;;;;;;11.88;4.57;;;10.80;99.90;;;;;;4993827;28;20490;-89
2022/10/03 05:54:32;;;;;;;9.83;3.93;;;10.80;99.90;;;;;;5009929;28;20018;-88
2022/10/03 05:57:20;;;;;;;11.10;3.97;;;10.80;99.90;;;;;;4993823;28;20036;-89
2022/10/03 05:59:51;;;;;;;8.43;3.97;;;10.80;99.90;;;;;;4995687;28;20018;-89
2022/10/03 06:02:31;;;;;;;11.35;4.00;;;10.80;99.90;;;;;;5001192;28;20117;-86
2022/10/03 06:05:33;;;;;;;7.80;3.78;;;10.70;99.90;;;;;;5001288;28;20026;-87
2022/10/03 06:08:34;;;;;;;9.82;4.07;;;10.70;99.90;;;;;;5001058;28;20018;-88
2022/10/03 06:11:10;;;;;;;8.75;4.03;;;10.70;99.90;;;;;;5001214;28;20043;-88
2022/10/03 06:13:48;;;;;;;8.20;3.92;;;10.70;99.90;;;;;;5016471;28;20430;-88
2022/10/03 06:16:30;;;;;;;10.90;4.50;;;10.70;99.90;;;;;;5016067;28;20041;-87
2022/10/03 06:19:05;;;;;;;8.20;3.97;;;10.70;99.90;;;;;;5016306;28;20029;-87
2022/10/03 06:21:45;;;;;;;9.13;4.65;;;10.70;99.90;;;;;;5016578;28;20117;-87
2022/10/03 06:24:30;;;;;;;14.90;4.18;;;10.70;99.90;;;;;;5000773;28;20029;-87
2022/10/03 06:27:13;;;;;;;11.15;4.40;;;10.70;99.90;;;;;;5000910;28;20505;-87
2022/10/03 06:29:53;;;;;;;7.35;3.25;;;10.70;99.90;;;;;;5002144;28;20026;-87
2022/10/03 06:32:46;;;;;;;8.05;3.50;;;10.70;99.90;;;;;;5000796;28;20085;-87
2022/10/03 06:35:51;;;;;;;8.30;3.88;;;10.70;99.90;;;;;;4999688;28;20104;-88
2022/10/03 06:38:45;;;;;;;9.45;3.90;;;10.70;99.90;;;;;;5000006;28;20134;-88
2022/10/03 06:41:23;;;;;;;8.40;4.03;;;10.70;99.90;;;;;;5016040;28;20027;-88
2022/10/03 06:43:55;;;;;;;7.90;3.88;;;10.70;99.90;;;;;;5015848;28;20037;-88
2022/10/03 06:46:45;;;;;;;10.95;4.78;;;10.70;99.90;;;;;;5019412;28;20033;-87
2022/10/03 06:49:46;;;;;;;10.07;4.53;;;10.70;99.90;;;;;;5000552;28;20026;-88
2022/10/03 06:52:19;;;;;;;9.45;4.18;;;10.70;99.90;;;;;;4940130;29;20024;-88
2022/10/03 06:55:15;;;;;;;11.43;4.65;;;10.80;99.90;;;;;;4986805;28;20041;-87
2022/10/03 06:58:00;;;;;;;9.82;4.15;;;10.80;99.90;;;;;;4999739;28;20018;-87
2022/10/03 07:00:56;;;;;;;11.93;4.40;;;10.80;99.90;;;;;;5015915;28;20026;-91
2022/10/03 07:04:17;;;;;;;12.18;5.25;;;10.90;99.90;;;;;;4999860;28;20113;-91
2022/10/03 07:06:47;;;;;;;9.93;4.32;;;10.90;99.90;;;;;;4987652;28;20042;-88
2022/10/03 07:09:18;;;;;;;13.52;5.18;;;10.90;99.90;;;;;;5000518;28;20030;-88
2022/10/03 07:12:22;;;;;;;9.30;5.18;;;10.90;99.90;;;;;;4997955;28;20022;-87
2022/10/03 07:15:13;;;;;;;8.63;4.25;;;11.00;99.90;;;;;;5012968;28;20022;-88
2022/10/03 07:18:10;;;;;;;13.75;5.13;;;11.00;99.90;;;;;;4996391;28;20023;-88
2022/10/03 07:21:16;;;;;;;9.05;5.10;;;11.10;99.90;;;;;;4996913;28;20030;-88
2022/10/03 07:23:53;;;;;;;14.38;5.60;;;11.10;99.90;;;;;;4996760;28;20026;-87
2022/10/03 07:26:56;;;;;;;12.05;4.50;;;11.20;99.90;;;;;;4996688;28;20036;-87
2022/10/03 07:29:44;;;;;;;14.20;4.65;;;11.20;99.90;;;;;;4995313;28;20040;-87
2022/10/03 07:32:24;;;;;;;8.25;4.38;;;11.30;99.90;;;;;;4995448;28;20126;-85
2022/10/03 07:35:08;;;;;;;8.45;4.07;;;11.40;99.90;;;;;;4996865;28;20109;-89
2022/10/03 07:40:57;;;;;;;;;;;11.50;99.90;;;;;;4997476;28;20041;-88
2022/10/03 07:43:50;;;;;;;13.93;4.80;;;11.50;99.90;;;;;;5011916;28;19914;-89
2022/10/03 07:46:34;;;;;;;11.15;4.93;;;11.50;99.90;;;;;;4995780;28;20036;-89
2022/10/03 07:49:14;;;;;;;12.45;5.35;;;11.60;99.90;;;;;;4996183;28;20034;-90
2022/10/03 07:51:59;;;;;;;12.52;4.40;;;11.60;99.90;;;;;;4995877;28;20030;-87
2022/10/03 07:54:43;;;;;;;10.63;5.25;;;11.70;99.90;;;;;;4996844;28;20100;-89
2022/10/03 07:57:28;;;;;;;12.38;4.68;;;11.70;99.90;;;;;;4995912;28;20035;-89
2022/10/03 08:00:14;;;;;;;12.20;4.85;;;11.80;99.90;;;;;;4995679;28;20027;-85
2022/10/03 08:03:21;;;;;;;16.38;5.15;;;11.80;99.90;;;;;;4995310;28;20023;-87
2022/10/03 08:06:04;;;;;;;11.60;4.80;;;11.90;99.90;;;;;;4995098;28;20022;-87
2022/10/03 08:08:51;;;;;;;13.65;4.90;;;11.90;99.90;;;;;;5011256;28;20026;-88
2022/10/03 08:11:52;;;;;;;11.23;4.70;;;12.00;99.90;;;;;;5011138;28;20022;-87
2022/10/03 08:14:24;;;;;;;12.93;4.88;;;12.00;99.90;;;;;;4967146;28;20042;-86
2022/10/03 08:17:20;;;;;;;14.90;6.57;;;12.10;99.90;;;;;;5010672;28;20038;-87
2022/10/03 08:20:12;;;;;;;11.57;4.35;;;12.20;99.90;;;;;;4996158;28;20018;-87
2022/10/03 08:22:59;;;;;;;11.40;5.13;;;12.20;99.90;;;;;;4994347;28;20415;-87
2022/10/03 08:25:39;;;;;;;9.35;4.93;;;12.30;99.90;;;;;;4994494;28;20489;-87
2022/10/03 08:28:31;;;;;;;11.68;4.70;;;12.40;99.90;;;;;;4994428;28;20023;-87
2022/10/03 08:31:03;;;;;;;11.73;4.97;;;12.40;99.90;;;;;;4994875;28;20018;-87
2022/10/03 08:33:43;;;;;;;11.10;5.75;;;12.50;99.90;;;;;;5011096;28;20099;-87
2022/10/03 08:36:41;;;;;;;14.20;5.18;;;12.50;99.90;;;;;;4995790;28;20042;-87
2022/10/03 08:39:24;;;;;;;10.80;5.57;;;12.60;99.90;;;;;;4994532;28;20096;-86
2022/10/03 08:42:05;;;;;;;10.30;5.00;;;12.60;99.90;;;;;;4994538;28;20517;-87
2022/10/03 08:44:39;;;;;;;9.15;4.90;;;12.70;99.90;;;;;;5010828;28;20045;-87
2022/10/03 08:47:26;;;;;;;10.60;4.78;;;12.80;99.90;;;;;;5010821;28;20031;-87
2022/10/03 08:50:13;;;;;;;11.60;5.63;;;12.80;99.90;;;;;;5010484;28;20046;-86
2022/10/03 08:53:11;;;;;;;13.43;5.55;;;13.00;99.90;;;;;;4994130;28;20490;-85
2022/10/03 08:55:54;;;;;;;13.32;5.68;;;13.00;99.90;;;;;;4983565;28;20069;-86
2022/10/03 08:58:44;;;;;;;10.90;5.10;;;13.10;99.90;;;;;;4995573;28;20050;-86
2022/10/03 09:01:37;;;;;;;14.02;5.70;;;13.20;99.90;;;;;;4995724;28;20027;-91
2022/10/03 09:04:30;;;;;;;13.52;5.00;;;13.30;99.90;;;;;;5010611;28;20465;-88
2022/10/03 09:07:17;;;;;;;10.63;5.03;;;13.40;99.90;;;;;;4994765;28;20033;-87
2022/10/03 09:09:52;;;;;;;11.82;4.50;;;13.50;99.90;;;;;;4995389;28;20041;-87
2022/10/03 09:12:31;;;;;;;11.70;4.20;;;13.60;99.90;;;;;;4995031;28;20022;-86
2022/10/03 09:15:03;;;;;;;12.05;3.65;;;13.70;99.90;;;;;;4994963;28;20022;-86
2022/10/03 09:17:59;;;;;;;10.77;4.20;;;13.80;99.90;;;;;;5010534;28;20034;-87
2022/10/03 09:20:55;;;;;;;11.93;4.68;;;13.90;99.90;;;;;;4993702;28;20462;-93
2022/10/03 09:23:59;;;;;;;9.68;3.75;;;14.00;99.90;;;;;;4993712;28;20026;-87
2022/10/03 09:27:02;;;;;;;17.60;4.45;;;14.20;99.90;;;;;;4994805;28;20022;-88
2022/10/03 09:29:34;;;;;;;12.00;4.05;;;14.30;99.90;;;;;;4993747;28;20026;-87
2022/10/03 09:32:18;;;;;;;10.18;3.55;;;14.40;99.90;;;;;;4994576;28;20029;-87
2022/10/03 09:35:22;;;;;;;14.82;5.00;;;14.50;99.90;;;;;;4992797;28;20458;-86
2022/10/03 09:37:47;;;;;;;12.13;3.60;;;14.70;99.90;;;;;;4969518;28;20050;-86
2022/10/03 09:40:53;;;;;;;12.63;4.47;;;14.70;99.90;;;;;;5009660;28;20352;-87
2022/10/03 09:43:50;;;;;;;10.35;3.67;;;14.80;99.90;;;;;;5009705;28;20026;-87
2022/10/03 09:46:35;;;;;;;10.02;3.17;;;15.00;99.90;;;;;;4993183;28;20426;-86
2022/10/03 09:49:25;;;;;;;11.98;3.20;;;15.10;99.90;;;;;;4993283;28;20022;-87
2022/10/03 09:52:00;;;;;;;10.05;2.83;;;15.30;99.90;;;;;;4995398;28;20120;-86
2022/10/03 09:54:50;;;;;;;8.55;2.58;;;15.30;99.90;;;;;;4994585;28;20026;-86
2022/10/03 09:57:27;;;;;;;8.02;3.05;;;15.50;99.90;;;;;;4994343;28;20026;-88
2022/10/03 10:00:46;;;;;;;13.45;3.78;;;15.60;99.90;;;;;;5009533;28;20042;-86
2022/10/03 10:03:44;;;;;;;11.32;2.88;;;15.70;99.90;;;;;;4933901;29;20031;-85
2022/10/03 10:06:26;;;;;;;6.43;2.03;;;15.90;99.90;;;;;;4934095;29;20064;-86
2022/10/03 10:09:20;;;;;;;8.68;1.70;;;16.00;99.90;;;;;;4986725;28;20112;-86
2022/10/03 10:12:22;;;;;;;9.45;2.28;;;16.10;99.90;;;;;;5008639;28;20038;-85
2022/10/03 10:15:28;;;;;;;14.00;2.67;;;16.20;99.90;;;;;;5009065;28;20026;-85
2022/10/03 10:18:28;;;;;;;10.75;2.40;;;16.30;99.90;;;;;;4994172;28;20062;-85
2022/10/03 10:21:24;;;;;;;7.70;2.28;;;16.40;99.90;;;;;;5008849;28;20026;-86
2022/10/03 10:24:08;;;;;;;6.15;1.48;;;16.50;99.90;;;;;;5014666;28;20023;-94
2022/10/03 10:27:02;;;;;;;6.47;1.40;;;16.60;99.90;;;;;;4992415;28;20030;-92
2022/10/03 10:29:46;;;;;;;8.98;1.80;;;16.80;99.90;;;;;;4974982;28;20034;-93
2022/10/03 10:32:34;;;;;;;5.40;1.60;;;16.90;99.90;;;;;;4973699;28;20026;-89
2022/10/03 10:35:24;;;;;;;9.10;2.15;;;17.00;99.90;;;;;;4974390;28;20031;-87
2022/10/03 10:38:20;;;;;;;8.00;2.00;;;17.10;99.90;;;;;;4973757;28;20380;-86
2022/10/03 10:41:17;;;;;;;8.40;2.20;;;17.10;99.90;;;;;;4972857;28;20073;-87
2022/10/03 10:44:16;;;;;;;9.57;1.75;;;17.20;99.90;;;;;;4973951;28;20212;-87
2022/10/03 10:47:03;;;;;;;9.93;2.28;;;17.30;99.90;;;;;;4989921;28;20042;-87
2022/10/03 10:49:28;;;;;;;7.35;2.10;;;17.40;99.90;;;;;;4976816;28;20383;-86
2022/10/03 10:52:14;;;;;;;5.70;1.88;;;17.50;99.90;;;;;;4976622;28;20026;-86
2022/10/03 10:58:25;;;;;;;4.43;1.40;;;17.80;99.90;;;;;;4978119;28;20070;-87
2022/10/03 11:01:30;;;;;;;8.32;2.03;;;17.90;99.90;;;;;;4977210;28;20042;-86
2022/10/03 11:04:26;;;;;;;8.57;2.20;;;18.10;99.90;;;;;;4977701;28;20030;-87
2022/10/03 11:07:26;;;;;;;9.68;2.50;;;18.20;99.90;;;;;;4992701;28;20545;-86
2022/10/03 11:10:18;;;;;;;7.53;2.38;;;18.30;99.90;;;;;;4975990;28;20034;-87
2022/10/03 11:13:21;;;;;;;10.13;2.03;;;18.50;99.90;;;;;;4976011;28;20031;-87
2022/10/03 11:16:01;;;;;;;6.55;1.65;;;18.60;99.90;;;;;;4992204;28;20090;-88
2022/10/03 11:18:58;;;;;;;7.35;1.88;;;18.70;99.90;;;;;;4976311;28;20030;-87
2022/10/03 11:21:42;;;;;;;7.65;1.92;;;18.70;99.90;;;;;;4977547;28;20038;-87
2022/10/03 11:24:10;;;;;;;6.63;1.90;;;18.80;99.90;;;;;;4977398;28;20109;-87
2022/10/03 11:26:55;;;;;;;10.88;2.00;;;18.90;99.90;;;;;;4977497;28;20042;-86
2022/10/03 11:29:47;;;;;;;6.43;1.80;;;19.00;99.90;;;;;;4977132;28;20205;-86
2022/10/03 11:33:00;;;;;;;5.57;1.52;;;19.00;99.90;;;;;;4977352;28;20031;-86
2022/10/03 11:35:51;;;;;;;6.28;1.58;;;19.10;99.90;;;;;;4975656;28;20054;-86
2022/10/03 11:38:28;;;;;;;6.70;1.70;;;19.20;99.90;;;;;;4977142;28;20051;-86
2022/10/03 11:41:08;;;;;;;7.97;1.63;;;19.30;99.90;;;;;;4976915;28;20027;-85
2022/10/03 11:43:41;;;;;;;7.32;1.67;;;19.30;99.90;;;;;;4986222;28;20459;-86
2022/10/03 11:46:44;;;;;;;8.00;2.60;;;19.40;99.90;;;;;;4995081;28;20022;-86
2022/10/03 11:49:42;;;;;;;10.57;2.10;;;19.50;99.90;;;;;;5011458;28;20034;-86
2022/10/03 11:52:44;;;;;;;6.85;1.38;;;19.50;99.90;;;;;;4981510;28;20030;-84
2022/10/03 11:55:32;;;;;;;9.13;1.77;;;19.60;99.90;;;;;;4995219;28;20018;-85
2022/10/03 11:58:03;;;;;;;8.88;1.73;;;19.70;99.90;;;;;;4994536;28;20030;-85
2022/10/03 12:00:35;;;;;;;6.95;1.90;;;19.80;99.20;;;;;;5011454;28;20030;-85
2022/10/03 12:03:31;;;;;;;6.78;1.73;;;19.80;99.90;;;;;;4996332;28;20029;-85
2022/10/03 12:12:20;;;;;;;8.27;1.77;;;20.10;99.90;;;;;;4996146;28;20030;-86
2022/10/03 12:14:50;;;;;;;6.45;1.45;;;20.20;99.90;;;;;;4994964;28;20022;-85
2022/10/03 12:17:35;;;;;;;7.53;1.88;;;20.30;99.90;;;;;;4995775;28;20085;-85
2022/10/03 12:20:23;;;;;;;4.88;1.50;;;20.30;99.20;;;;;;4994875;28;20033;-84
2022/10/03 12:22:55;;;;;;;5.40;1.55;;;20.40;99.50;;;;;;4994577;28;20034;-84
2022/10/03 12:25:29;;;;;;;6.78;1.92;;;20.50;99.30;;;;;;4994724;28;20022;-84
2022/10/03 12:28:01;;;;;;;5.72;1.77;;;20.50;99.10;;;;;;4995180;28;20019;-86
2022/10/03 12:33:53;;;;;;;6.82;1.52;;;20.60;98.30;;;;;;4992277;28;20033;-83
2022/10/03 12:36:37;;;;;;;5.70;1.50;;;20.70;97.70;;;;;;4995497;28;20030;-85
2022/10/03 12:42:38;;;;;;;4.55;1.45;;;20.70;95.60;;;;;;4995315;28;20053;-85
2022/10/03 12:45:15;;;;;;;6.50;1.48;;;20.70;96.60;;;;;;4995600;28;20037;-85
2022/10/03 12:51:06;;;;;;;5.57;1.42;;;20.70;95.30;;;;;;4995278;28;20088;-85
2022/10/03 12:53:54;;;;;;;6.05;1.70;;;20.70;95.10;;;;;;4995340;28;20084;-85
2022/10/03 12:56:45;;;;;;;5.47;1.30;;;20.70;95.10;;;;;;4993992;28;20031;-85
2022/10/03 12:59:44;;;;;;;5.65;1.40;;;20.70;94.70;;;;;;4994025;28;20026;-86
2022/10/03 13:02:34;;;;;;;7.20;2.13;;;20.80;94.30;;;;;;4995258;28;20027;-85
2022/10/03 13:08:26;;;;;;;5.20;1.25;;;20.80;94.50;;;;;;4995226;28;20033;-84
2022/10/03 13:11:04;;;;;;;9.50;2.60;;;20.80;95.00;;;;;;5009565;28;20034;-90
2022/10/03 13:13:32;;;;;;;5.88;1.50;;;20.80;94.60;;;;;;4995110;28;20031;-87
2022/10/03 13:16:16;;;;;;;6.40;1.65;;;20.80;94.70;;;;;;4993357;28;20085;-87
2022/10/03 13:19:21;;;;;;;5.18;1.40;;;20.80;93.60;;;;;;5010519;28;20029;-86
2022/10/03 13:22:20;;;;;;;6.03;1.30;;;20.80;93.70;;;;;;4993569;28;20026;-86
2022/10/03 13:25:23;;;;;;;4.78;1.33;;;20.80;94.20;;;;;;4994964;28;20085;-88
2022/10/03 13:28:15;;;;;;;10.15;1.48;;;20.80;93.90;;;;;;4994891;28;20021;-87
2022/10/03 13:31:09;;;;;;;6.90;1.42;;;20.90;94.30;;;;;;4986128;28;20117;-86
2022/10/03 13:33:45;;;;;;;6.07;1.40;;;20.90;93.40;;;;;;4993540;28;20026;-88
2022/10/03 13:36:22;;;;;;;7.35;1.70;;;20.90;93.60;;;;;;4993371;28;20037;-89
2022/10/03 13:38:58;;;;;;;10.57;1.50;;;20.90;94.20;;;;;;4993207;28;20050;-86
2022/10/03 13:41:54;;;;;;;7.30;1.60;;;21.00;93.30;;;;;;5010772;28;20022;-85
2022/10/03 13:44:58;;;;;;;5.35;1.40;;;21.00;93.50;;;;;;5009797;28;20022;-87
2022/10/03 13:54:11;;;;;;;6.85;1.63;;;21.00;92.70;;;;;;4994494;28;20517;-87
2022/10/03 14:00:14;;;;;;;6.68;1.83;;;21.00;91.50;;;;;;4994692;28;20097;-88
2022/10/03 14:02:50;;;;;;;6.97;1.40;;;21.00;92.90;;;;;;4993314;28;20072;-87
2022/10/03 14:05:22;;;;;;;9.68;1.85;;;21.00;93.30;;;;;;5009546;28;20430;-87
2022/10/03 14:07:54;;;;;;;4.88;1.77;;;21.10;93.50;;;;;;4994542;28;20029;-88
2022/10/03 14:10:34;;;;;;;7.38;1.48;;;21.10;93.20;;;;;;5008743;28;20037;-88
2022/10/03 14:13:23;;;;;;;7.43;1.30;;;21.10;93.40;;;;;;5023632;28;20058;-88
2022/10/03 14:15:51;;;;;;;4.97;1.33;;;21.20;93.70;;;;;;4993546;28;20061;-85
2022/10/03 14:18:48;;;;;;;6.50;1.40;;;21.20;93.30;;;;;;4993980;28;20527;-87
2022/10/03 14:21:32;;;;;;;7.07;1.20;;;21.20;92.40;;;;;;4996110;28;20026;-87
2022/10/03 14:24:19;;;;;;;4.90;1.35;;;21.20;92.30;;;;;;4996559;28;20027;-87
2022/10/03 14:27:12;;;;;;;6.57;2.05;;;21.20;92.40;;;;;;4998249;28;20114;-87
2022/10/03 14:29:50;;;;;;;5.15;1.48;;;21.20;90.80;;;;;;4996083;28;20030;-87
2022/10/03 14:32:26;;;;;;;14.38;4.90;;;21.20;92.00;;;;;;4997491;28;20072;-88
2022/10/03 14:35:22;;;;;;;12.75;3.55;;;21.20;91.80;;;;;;4997409;28;20491;-85
2022/10/03 14:38:03;;;;;;;10.80;2.63;;;21.20;91.70;;;;;;4997249;28;20409;-87
2022/10/03 14:40:47;;;;;;;6.75;2.15;;;21.20;92.60;;;;;;5010065;28;20113;-88
2022/10/03 14:43:51;;;;;;;4.20;1.77;;;21.20;92.20;;;;;;4995616;28;20025;-88
2022/10/03 14:46:20;;;;;;;7.90;1.60;;;21.20;91.60;;;;;;4998574;28;20037;-88
2022/10/03 14:48:50;;;;;;;6.65;1.65;;;21.10;92.40;;;;;;4996508;28;20109;-88
2022/10/03 14:51:20;;;;;;;6.82;1.90;;;21.10;92.30;;;;;;4996683;28;20026;-87
2022/10/03 14:54:04;;;;;;;6.40;1.60;;;21.10;92.20;;;;;;4996758;28;20112;-87
2022/10/03 14:56:42;;;;;;;7.45;1.98;;;21.20;91.30;;;;;;4996704;28;20027;-88
2022/10/03 14:59:21;;;;;;;6.15;1.70;;;21.10;91.80;;;;;;4996494;28;20022;-88
2022/10/03 15:01:50;;;;;;;7.97;1.92;;;21.10;91.90;;;;;;4997718;28;20037;-87
2022/10/03 15:04:28;;;;;;;10.02;2.35;;;21.10;92.10;;;;;;4996598;28;20492;-88
2022/10/03 15:07:00;;;;;;;8.05;1.98;;;21.10;92.10;;;;;;4996358;28;20474;-88